Terminal Aerodrome Forecast
Issued by NWS Atlanta, GA

Current Version | Previous Version | Text Only | Print | Product List | Glossary On
Versions: 1 2 3 4 5 6 7 8 9 10 11 12 13 14 15 16 17 18 19 20 21 22 23 24 25 26 27 28 29 30 31 32 33 34 35 36 37 38 39 40 41
085
FTAK31 PAJN 211135
TAFAHN
TAF
PAHN 211135Z 2112/2212 08012G22KT 6SM -RA BR SCT015 OVC045
      TEMPO 2112/2114 5SM -RA BR BKN015
     FM211400 09012G22KT 5SM -RA BR BKN015 OVC040 WS020/12035KT
     FM220600 09010KT P6SM -RA BKN015 OVC050
      AMD LTD TO CLD VIS AND WIND=

USA.gov is the U.S. government's official web portal to all federal, state and local government web resources and services.